createdAt,value
2023-03-16T00:01:30.847Z,7.46
2023-03-16T00:03:33.445Z,7.46
2023-03-16T00:05:35.056Z,7.47
2023-03-16T00:07:36.857Z,7.40
2023-03-16T00:09:38.909Z,7.35
2023-03-16T00:11:42.309Z,7.30
2023-03-16T00:13:44.012Z,7.32
2023-03-16T00:15:50.198Z,7.30
2023-03-16T00:17:51.745Z,7.26
2023-03-16T00:19:55.667Z,7.26
2023-03-16T00:22:03.423Z,7.28
2023-03-16T00:24:05.580Z,7.34
2023-03-16T00:26:09.494Z,7.27
2023-03-16T00:28:12.401Z,7.21
2023-03-16T00:30:14.210Z,7.24
2023-03-16T00:32:17.828Z,7.26
2023-03-16T00:34:19.392Z,7.21
2023-03-16T00:36:21.000Z,7.20
2023-03-16T00:38:22.614Z,7.15
2023-03-16T00:40:24.243Z,7.15
2023-03-16T00:42:28.667Z,7.14
2023-03-16T00:44:31.664Z,7.12
2023-03-16T00:46:33.291Z,7.20
2023-03-16T00:48:35.928Z,7.25
2023-03-16T00:50:37.715Z,7.32
2023-03-16T00:52:39.360Z,7.30
2023-03-16T00:54:42.500Z,7.28
2023-03-16T00:56:44.067Z,7.16
2023-03-16T00:58:45.705Z,7.12
2023-03-16T01:00:48.822Z,7.11
2023-03-16T01:02:50.534Z,7.07
2023-03-16T01:04:53.337Z,7.07
2023-03-16T01:06:54.850Z,7.09
2023-03-16T01:08:56.448Z,7.07
2023-03-16T01:11:02.593Z,7.01
2023-03-16T01:13:04.342Z,6.95
2023-03-16T01:15:07.153Z,7.00
2023-03-16T01:17:10.521Z,7.04
2023-03-16T01:19:12.677Z,7.03
2023-03-16T01:21:14.690Z,7.08
2023-03-16T01:23:16.593Z,7.08
2023-03-16T01:25:18.263Z,7.02
2023-03-16T01:27:19.837Z,6.95
2023-03-16T01:29:21.457Z,7.02
2023-03-16T01:31:23.168Z,7.02
2023-03-16T01:33:28.352Z,7.02
2023-03-16T01:35:29.939Z,7.01
2023-03-16T01:37:31.534Z,6.99
2023-03-16T01:39:33.078Z,6.96
2023-03-16T01:41:34.653Z,7.02
2023-03-16T01:43:38.778Z,7.01
2023-03-16T01:46:16.226Z,6.95
2023-03-16T01:48:18.291Z,6.98
2023-03-16T01:50:21.253Z,7.04
2023-03-16T01:52:27.449Z,7.06
2023-03-16T01:54:33.033Z,7.03
2023-03-16T01:56:39.694Z,7.05
2023-03-16T01:58:43.977Z,7.05
2023-03-16T02:00:45.754Z,7.01
2023-03-16T02:02:51.255Z,6.97
2023-03-16T02:05:01.136Z,6.93
2023-03-16T02:07:06.630Z,6.94
2023-03-16T02:09:08.951Z,6.89
2023-03-16T02:11:11.237Z,6.89
2023-03-16T02:13:12.798Z,6.86
2023-03-16T02:15:14.949Z,6.89
2023-03-16T02:17:19.399Z,6.91
2023-03-16T02:19:34.990Z,6.97
2023-03-16T02:21:47.410Z,6.98
2023-03-16T02:23:50.595Z,6.93
2023-03-16T02:26:00.919Z,6.91
2023-03-16T02:28:13.084Z,6.89
2023-03-16T02:30:17.904Z,6.85
2023-03-16T02:32:20.661Z,6.82
2023-03-16T02:34:23.214Z,6.80
2023-03-16T02:36:25.048Z,6.75
2023-03-16T02:38:26.688Z,6.68
2023-03-16T02:40:31.065Z,6.60
2023-03-16T02:42:32.948Z,6.57
2023-03-16T02:44:37.111Z,6.59
2023-03-16T02:46:40.908Z,6.51
2023-03-16T02:48:47.688Z,6.50
2023-03-16T02:50:51.871Z,6.52
2023-03-16T02:52:53.434Z,6.54
2023-03-16T02:54:54.969Z,6.55
2023-03-16T02:56:56.536Z,6.50
2023-03-16T02:58:58.123Z,6.52
2023-03-16T03:01:00.472Z,6.52
2023-03-16T03:03:03.571Z,6.50
2023-03-16T03:05:06.354Z,6.53
2023-03-16T03:07:08.192Z,6.57
2023-03-16T03:09:10.517Z,6.65
2023-03-16T03:11:12.131Z,6.69
2023-03-16T03:13:13.720Z,6.66
2023-03-16T03:15:15.352Z,6.63
2023-03-16T03:17:16.965Z,6.56
2023-03-16T03:19:20.002Z,6.54
2023-03-16T03:21:22.010Z,6.50
2023-03-16T03:23:23.623Z,6.46
2023-03-16T03:25:25.263Z,6.50
2023-03-16T03:27:26.779Z,6.56
2023-03-16T03:29:28.388Z,6.47
2023-03-16T03:31:30.002Z,6.47
2023-03-16T03:33:31.552Z,6.43
2023-03-16T03:35:34.500Z,6.40
2023-03-16T03:37:36.285Z,6.38
2023-03-16T03:39:37.846Z,6.39
2023-03-16T03:41:39.394Z,6.40
2023-03-16T03:43:41.001Z,6.49
2023-03-16T03:45:42.525Z,6.43
2023-03-16T03:47:44.360Z,6.35
2023-03-16T03:49:45.940Z,6.41
2023-03-16T03:51:48.912Z,6.31
2023-03-16T03:53:50.549Z,6.28
2023-03-16T03:55:52.108Z,6.24
2023-03-16T03:57:53.829Z,6.30
2023-03-16T03:59:55.426Z,6.24
2023-03-16T04:01:57.218Z,6.20
2023-03-16T04:03:59.067Z,6.20
2023-03-16T04:06:00.595Z,6.20
2023-03-16T04:08:03.719Z,6.18
2023-03-16T04:10:06.828Z,6.17
2023-03-16T04:12:08.918Z,6.19
2023-03-16T04:14:10.495Z,6.17
2023-03-16T04:16:12.394Z,6.31
2023-03-16T04:18:14.006Z,6.29
2023-03-16T04:20:16.414Z,6.18
2023-03-16T04:22:18.004Z,6.13
2023-03-16T04:24:20.993Z,6.14
2023-03-16T04:26:22.647Z,6.16
2023-03-16T04:28:24.301Z,6.13
2023-03-16T04:30:25.966Z,6.22
2023-03-16T04:32:27.703Z,6.28
2023-03-16T04:34:29.504Z,6.20
2023-03-16T04:36:31.063Z,6.23
2023-03-16T04:38:33.540Z,6.23
2023-03-16T04:40:36.478Z,6.26
2023-03-16T04:42:38.111Z,6.22
2023-03-16T04:44:39.751Z,6.17
2023-03-16T04:46:41.430Z,6.16
2023-03-16T04:48:42.969Z,6.11
2023-03-16T04:50:44.935Z,6.14
2023-03-16T04:52:46.504Z,6.14
2023-03-16T04:54:48.082Z,6.20
2023-03-16T04:56:51.021Z,6.25
2023-03-16T04:58:52.690Z,6.26
2023-03-16T05:00:55.261Z,6.28
2023-03-16T05:02:56.835Z,6.34
2023-03-16T05:04:58.365Z,6.38
2023-03-16T05:07:00.056Z,6.39
2023-03-16T05:09:01.744Z,6.42
2023-03-16T05:11:03.461Z,6.37
2023-03-16T05:13:06.797Z,6.37
2023-03-16T05:15:09.392Z,6.39
2023-03-16T05:17:15.457Z,6.40
2023-03-16T05:19:17.333Z,6.43
2023-03-16T05:21:19.075Z,6.41
2023-03-16T05:23:21.798Z,6.29
2023-03-16T05:25:23.397Z,6.29
2023-03-16T05:27:24.998Z,6.23
2023-03-16T05:29:27.906Z,6.24
2023-03-16T05:31:29.677Z,6.20
2023-03-16T05:33:31.267Z,6.18
2023-03-16T05:35:32.864Z,6.22
2023-03-16T05:37:34.647Z,6.31
2023-03-16T05:39:36.411Z,6.29
2023-03-16T05:41:37.980Z,6.30
2023-03-16T05:43:39.602Z,6.31
2023-03-16T05:45:42.539Z,6.24
2023-03-16T05:47:44.539Z,5.95
2023-03-16T05:49:46.166Z,5.80
2023-03-16T05:51:47.942Z,5.62
2023-03-16T05:53:49.537Z,5.44
2023-03-16T05:55:52.008Z,5.51
2023-03-16T05:57:53.682Z,5.58
2023-03-16T05:59:55.315Z,5.69
2023-03-16T06:01:58.255Z,5.57
2023-03-16T06:03:59.980Z,5.60
2023-03-16T06:06:01.580Z,5.59
2023-03-16T06:08:03.385Z,5.76
2023-03-16T06:10:06.256Z,5.53
2023-03-16T06:12:08.094Z,5.58
2023-03-16T06:14:09.618Z,5.63
2023-03-16T06:16:11.461Z,5.66
2023-03-16T06:18:14.471Z,5.74
2023-03-16T06:20:16.104Z,5.86
2023-03-16T06:22:18.026Z,5.75
2023-03-16T06:24:19.808Z,5.47
2023-03-16T06:26:21.357Z,5.29
2023-03-16T06:28:23.364Z,5.32
2023-03-16T06:30:25.022Z,5.14
2023-03-16T06:32:26.716Z,4.99
2023-03-16T06:34:29.888Z,5.02
2023-03-16T06:36:31.464Z,5.13
2023-03-16T06:38:33.103Z,5.28
2023-03-16T06:40:34.700Z,5.21
2023-03-16T06:42:36.306Z,5.15
2023-03-16T06:44:37.868Z,5.12
2023-03-16T06:46:39.473Z,5.12
2023-03-16T06:48:43.887Z,5.24
2023-03-16T06:50:46.811Z,5.19
2023-03-16T06:52:48.761Z,5.31
2023-03-16T06:54:50.361Z,5.30
2023-03-16T06:56:51.945Z,5.33
2023-03-16T06:58:53.744Z,5.39
2023-03-16T07:00:55.286Z,5.41
2023-03-16T07:02:58.415Z,5.45
2023-03-16T07:05:01.791Z,5.50
2023-03-16T07:07:04.649Z,5.62
2023-03-16T07:09:06.349Z,5.70
2023-03-16T07:11:08.498Z,5.87
2023-03-16T07:13:10.072Z,5.89
2023-03-16T07:15:12.833Z,5.96
2023-03-16T07:17:14.442Z,6.01
2023-03-16T07:19:16.018Z,6.04
2023-03-16T07:21:18.433Z,6.10
2023-03-16T07:23:21.514Z,6.17
2023-03-16T07:25:23.392Z,6.25
2023-03-16T07:27:25.055Z,6.35
2023-03-16T07:29:26.635Z,6.46
2023-03-16T07:31:28.217Z,6.46
2023-03-16T07:33:29.917Z,6.52
2023-03-16T07:35:31.833Z,6.67
2023-03-16T07:37:33.406Z,6.75
2023-03-16T07:39:36.858Z,6.84
2023-03-16T07:41:38.419Z,6.95
2023-03-16T07:43:40.003Z,7.14
2023-03-16T07:45:41.981Z,7.36
2023-03-16T07:47:43.833Z,7.52
2023-03-16T07:49:45.757Z,7.71
2023-03-16T07:51:47.386Z,7.80
2023-03-16T07:53:49.057Z,7.97
2023-03-16T07:55:51.927Z,8.03
2023-03-16T07:57:53.521Z,8.17
2023-03-16T07:59:55.114Z,8.34
2023-03-16T08:01:56.707Z,8.41
2023-03-16T08:03:58.348Z,8.49
2023-03-16T08:05:59.958Z,8.57
2023-03-16T08:08:01.460Z,8.71
2023-03-16T08:10:03.825Z,8.91
2023-03-16T08:12:08.854Z,9.09
2023-03-16T08:14:10.493Z,9.24
2023-03-16T08:16:12.152Z,9.36
2023-03-16T08:18:14.011Z,9.41
2023-03-16T08:20:15.510Z,9.52
2023-03-16T08:22:17.070Z,9.70
2023-03-16T08:24:18.802Z,9.77
2023-03-16T08:26:21.665Z,9.89
2023-03-16T08:28:25.043Z,10.09
2023-03-16T08:30:27.064Z,10.28
2023-03-16T08:32:28.796Z,10.41
2023-03-16T08:34:30.421Z,10.57
2023-03-16T08:36:32.091Z,10.61
2023-03-16T08:38:33.871Z,10.51
2023-03-16T08:40:35.481Z,10.70
2023-03-16T08:42:37.275Z,10.84
2023-03-16T08:44:40.177Z,10.84
2023-03-16T08:46:41.791Z,10.93
2023-03-16T08:48:43.432Z,11.04
2023-03-16T08:50:44.976Z,11.22
2023-03-16T08:52:49.511Z,11.30
2023-03-16T08:55:02.318Z,11.23
2023-03-16T08:57:05.199Z,11.37
2023-03-16T08:59:09.015Z,11.36
2023-03-16T09:01:16.990Z,11.60
2023-03-16T09:03:18.504Z,11.46
2023-03-16T09:05:20.079Z,11.58
2023-03-16T09:07:21.887Z,11.64
2023-03-16T09:09:23.464Z,11.66
2023-03-16T09:11:25.114Z,11.67
2023-03-16T09:13:30.174Z,11.64
2023-03-16T09:15:31.997Z,11.66
2023-03-16T09:17:35.196Z,11.48
2023-03-16T09:19:50.718Z,11.65
2023-03-16T09:21:58.965Z,11.48
2023-03-16T09:24:01.504Z,11.61
2023-03-16T09:26:05.194Z,11.70
2023-03-16T09:28:06.846Z,11.82
2023-03-16T09:30:10.368Z,11.78
2023-03-16T09:32:12.770Z,11.81
2023-03-16T09:34:15.815Z,11.90
2023-03-16T09:36:17.447Z,12.18
2023-03-16T09:38:19.841Z,12.43
2023-03-16T09:40:24.253Z,12.56
2023-03-16T09:42:33.310Z,12.75
2023-03-16T09:44:45.112Z,12.82
2023-03-16T09:46:48.722Z,12.88
2023-03-16T09:48:50.447Z,12.76
2023-03-16T09:50:55.139Z,12.68
2023-03-16T09:53:03.885Z,12.69
2023-03-16T09:55:12.302Z,12.77
2023-03-16T09:57:24.047Z,12.89
2023-03-16T09:59:26.061Z,12.91
2023-03-16T10:01:37.537Z,12.93
2023-03-16T10:04:04.194Z,13.06
2023-03-16T10:06:12.150Z,13.23
2023-03-16T10:08:15.903Z,13.33
2023-03-16T10:10:26.883Z,13.35
2023-03-16T10:12:34.281Z,13.21
2023-03-16T10:14:44.208Z,13.51
2023-03-16T10:16:49.815Z,13.64
2023-03-16T10:19:02.209Z,13.67
2023-03-16T10:21:05.223Z,13.89
2023-03-16T10:23:17.017Z,13.87
2023-03-16T10:25:23.716Z,13.96
2023-03-16T10:27:30.076Z,14.15
2023-03-16T10:29:36.107Z,14.40
2023-03-16T10:31:39.530Z,14.30
2023-03-16T10:33:41.178Z,14.38
2023-03-16T10:35:47.184Z,14.38
2023-03-16T10:37:48.979Z,14.74
2023-03-16T10:39:52.122Z,14.89
2023-03-16T10:41:57.672Z,15.01
2023-03-16T10:44:01.058Z,15.19
2023-03-16T10:46:02.845Z,15.42
2023-03-16T10:48:09.647Z,15.79
2023-03-16T10:50:13.008Z,16.11
2023-03-16T10:52:20.493Z,16.18
2023-03-16T10:54:28.492Z,16.53
2023-03-16T10:56:34.565Z,16.75
2023-03-16T10:58:40.047Z,17.04
2023-03-16T11:00:43.026Z,17.23
2023-03-16T11:02:44.616Z,17.49
2023-03-16T11:04:46.314Z,17.58
2023-03-16T11:06:51.867Z,17.76
2023-03-16T11:08:54.169Z,17.79
2023-03-16T11:11:00.026Z,17.97
2023-03-16T11:13:09.780Z,18.12
2023-03-16T11:15:25.259Z,18.41
2023-03-16T11:17:34.855Z,18.75
2023-03-16T11:19:50.005Z,18.92
2023-03-16T11:22:02.024Z,19.00
2023-03-16T11:24:05.804Z,19.05
2023-03-16T11:26:16.300Z,19.18
2023-03-16T11:28:28.085Z,19.50
2023-03-16T11:30:34.592Z,19.62
2023-03-16T11:32:38.790Z,19.55
2023-03-16T11:34:41.279Z,19.72
2023-03-16T11:36:49.992Z,19.67
2023-03-16T11:39:00.362Z,19.54
2023-03-16T11:41:03.999Z,19.27
2023-03-16T11:43:17.244Z,19.21
2023-03-16T11:45:28.661Z,18.91
2023-03-16T11:48:02.059Z,18.56
2023-03-16T11:50:12.958Z,18.39
2023-03-16T11:52:22.959Z,18.10
2023-03-16T11:54:52.555Z,17.84
2023-03-16T11:57:00.594Z,17.60
2023-03-16T11:59:25.646Z,17.49
2023-03-16T12:01:50.568Z,17.21
2023-03-16T12:04:24.814Z,17.09
2023-03-16T12:06:44.132Z,16.90
2023-03-16T12:09:01.275Z,16.68
2023-03-16T12:11:05.354Z,16.57
2023-03-16T12:13:24.296Z,16.72
2023-03-16T12:15:34.284Z,17.51
2023-03-16T12:17:37.974Z,17.87
2023-03-16T12:19:45.730Z,18.33
2023-03-16T12:22:01.341Z,18.71
2023-03-16T12:24:06.376Z,18.84
2023-03-16T12:26:08.429Z,18.83
2023-03-16T12:28:17.496Z,19.03
2023-03-16T12:30:29.008Z,19.35
2023-03-16T12:32:41.885Z,19.30
2023-03-16T12:34:51.122Z,19.37
2023-03-16T12:37:13.630Z,19.22
2023-03-16T12:39:23.121Z,18.84
2023-03-16T12:41:33.036Z,18.27
2023-03-16T12:43:49.589Z,18.17
2023-03-16T12:45:59.550Z,18.10
2023-03-16T12:48:12.131Z,17.82
2023-03-16T12:50:16.965Z,17.68
2023-03-16T12:52:18.877Z,17.48
2023-03-16T12:54:22.408Z,17.21
2023-03-16T12:56:28.464Z,16.96
2023-03-16T12:58:30.231Z,16.93
2023-03-16T13:00:36.144Z,16.95
2023-03-16T13:02:42.035Z,16.86
2023-03-16T13:04:49.717Z,16.90
2023-03-16T13:07:02.741Z,16.77
2023-03-16T13:09:06.582Z,16.77
2023-03-16T13:11:10.279Z,16.46
2023-03-16T13:13:14.027Z,16.35
2023-03-16T13:15:27.012Z,16.33
2023-03-16T13:17:31.250Z,16.25
2023-03-16T13:19:33.603Z,16.25
2023-03-16T13:21:38.836Z,16.38
2023-03-16T13:23:53.757Z,16.24
2023-03-16T13:26:02.741Z,16.11
2023-03-16T13:28:08.779Z,16.26
2023-03-16T13:30:19.684Z,16.18
2023-03-16T13:32:22.592Z,16.04
2023-03-16T13:34:28.530Z,15.96
2023-03-16T13:36:32.264Z,15.89
2023-03-16T13:38:35.144Z,15.88
2023-03-16T13:40:45.689Z,15.85
2023-03-16T13:42:49.029Z,15.91
2023-03-16T13:44:53.177Z,15.97
2023-03-16T13:46:54.996Z,16.01
2023-03-16T13:48:58.627Z,15.95
2023-03-16T13:51:00.472Z,15.78
2023-03-16T13:53:04.722Z,15.82
2023-03-16T13:55:15.961Z,15.89
2023-03-16T13:57:20.796Z,15.71
2023-03-16T13:59:23.209Z,15.74
2023-03-16T14:01:28.143Z,15.76
2023-03-16T14:03:35.228Z,15.85
2023-03-16T14:05:38.642Z,15.77
2023-03-16T14:07:40.351Z,15.81
2023-03-16T14:09:41.998Z,15.75
2023-03-16T14:11:45.121Z,15.80
2023-03-16T14:13:54.424Z,15.83
2023-03-16T14:15:59.151Z,15.78
2023-03-16T14:18:15.856Z,15.91
2023-03-16T14:20:21.053Z,15.77
2023-03-16T14:22:29.181Z,15.82
2023-03-16T14:24:34.280Z,15.89
2023-03-16T14:26:40.771Z,15.93
2023-03-16T14:28:55.006Z,15.95
2023-03-16T14:31:03.590Z,16.01
2023-03-16T14:33:06.884Z,15.91
2023-03-16T14:35:15.580Z,15.81
2023-03-16T14:37:17.596Z,15.81
2023-03-16T14:39:21.088Z,15.69
2023-03-16T14:41:25.613Z,15.77
2023-03-16T14:43:30.075Z,15.75
2023-03-16T14:45:34.739Z,15.78
2023-03-16T14:47:41.351Z,15.82
2023-03-16T14:49:43.567Z,15.82
2023-03-16T14:51:46.895Z,15.82
2023-03-16T14:53:48.436Z,15.73
2023-03-16T14:55:50.274Z,15.68
2023-03-16T14:57:51.891Z,15.59
2023-03-16T14:59:53.999Z,15.66
2023-03-16T15:01:57.632Z,15.66
2023-03-16T15:03:59.241Z,15.69
2023-03-16T15:06:01.807Z,15.77
2023-03-16T15:08:05.764Z,15.86
2023-03-16T15:10:20.195Z,15.83
2023-03-16T15:12:22.690Z,15.70
2023-03-16T15:14:24.264Z,15.82
2023-03-16T15:16:25.979Z,15.74
2023-03-16T15:18:28.977Z,15.70
2023-03-16T15:20:34.584Z,15.71
2023-03-16T15:22:38.183Z,15.69
2023-03-16T15:24:39.993Z,15.62
2023-03-16T15:26:41.652Z,15.80
2023-03-16T15:28:43.325Z,15.80
2023-03-16T15:30:46.858Z,15.73
2023-03-16T15:32:48.708Z,15.60
2023-03-16T15:34:51.683Z,15.57
2023-03-16T15:36:53.222Z,15.63
2023-03-16T15:38:55.100Z,15.69
2023-03-16T15:40:56.947Z,15.72
2023-03-16T15:42:58.641Z,15.79
2023-03-16T15:45:00.169Z,15.72
2023-03-16T15:47:01.845Z,15.76
2023-03-16T15:49:03.458Z,15.79
2023-03-16T15:51:13.792Z,15.75
2023-03-16T15:53:30.422Z,15.72
2023-03-16T15:55:36.100Z,15.74
2023-03-16T15:57:37.671Z,15.70
2023-03-16T15:59:40.097Z,15.67
2023-03-16T16:01:44.182Z,15.75
2023-03-16T16:03:45.729Z,15.66
2023-03-16T16:05:47.633Z,15.63
2023-03-16T16:07:50.574Z,15.61
2023-03-16T16:09:52.155Z,15.66
2023-03-16T16:11:53.781Z,15.72
2023-03-16T16:13:56.917Z,15.70
2023-03-16T16:15:58.741Z,15.73
2023-03-16T16:18:21.238Z,15.70
2023-03-16T16:20:26.119Z,15.68
2023-03-16T16:22:27.645Z,15.64
2023-03-16T16:24:30.674Z,15.70
2023-03-16T16:26:48.964Z,15.81
2023-03-16T16:28:51.799Z,15.77
2023-03-16T16:30:53.664Z,15.74
2023-03-16T16:32:57.583Z,15.78
2023-03-16T16:35:04.523Z,15.81
2023-03-16T16:37:09.506Z,15.77
2023-03-16T16:39:12.117Z,15.70
2023-03-16T16:41:31.594Z,15.54
2023-03-16T16:43:37.473Z,15.49
2023-03-16T16:45:39.066Z,15.50
2023-03-16T16:47:40.706Z,15.52
2023-03-16T16:49:42.306Z,15.41
2023-03-16T16:51:43.983Z,15.39
2023-03-16T16:53:46.302Z,15.37
2023-03-16T16:55:47.915Z,15.37
2023-03-16T16:57:54.055Z,15.33
2023-03-16T16:59:56.742Z,15.30
2023-03-16T17:02:00.441Z,15.30
2023-03-16T17:04:02.963Z,15.23
2023-03-16T17:06:05.118Z,15.28
2023-03-16T17:08:06.705Z,15.26
2023-03-16T17:10:16.025Z,15.21
2023-03-16T17:12:21.487Z,15.19
2023-03-16T17:14:25.749Z,15.09
2023-03-16T17:16:29.787Z,15.11
2023-03-16T17:18:31.797Z,15.15
2023-03-16T17:20:33.426Z,15.19
2023-03-16T17:22:35.105Z,15.18
2023-03-16T17:24:36.667Z,15.13
2023-03-16T17:26:43.062Z,15.12
2023-03-16T17:28:47.131Z,15.06
2023-03-16T17:30:50.082Z,15.07
2023-03-16T17:32:52.745Z,15.03
2023-03-16T17:34:54.351Z,15.02
2023-03-16T17:36:56.274Z,15.01
2023-03-16T17:38:57.947Z,14.95
2023-03-16T17:41:00.485Z,14.93
2023-03-16T17:43:02.074Z,14.90
2023-03-16T17:45:06.614Z,14.81
2023-03-16T17:47:15.285Z,14.74
2023-03-16T17:49:17.957Z,14.75
2023-03-16T17:51:21.291Z,14.70
2023-03-16T17:53:22.954Z,14.86
2023-03-16T17:55:24.475Z,14.78
2023-03-16T17:57:29.405Z,14.79
2023-03-16T17:59:31.047Z,14.75
2023-03-16T18:01:33.443Z,14.72
2023-03-16T18:03:36.655Z,14.69
2023-03-16T18:05:40.184Z,14.74
2023-03-16T18:07:41.749Z,14.74
2023-03-16T18:09:43.835Z,14.68
2023-03-16T18:11:48.046Z,14.76
2023-03-16T18:13:50.966Z,14.75
2023-03-16T18:15:53.212Z,14.67
2023-03-16T18:17:55.083Z,14.65
2023-03-16T18:19:58.302Z,14.58
2023-03-16T18:21:59.997Z,14.54
2023-03-16T18:24:13.820Z,14.64
2023-03-16T18:26:15.582Z,14.60
2023-03-16T18:28:18.374Z,14.60
2023-03-16T18:30:20.070Z,14.63
2023-03-16T18:32:24.999Z,14.63
2023-03-16T18:34:30.929Z,14.60
2023-03-16T18:36:36.586Z,14.55
2023-03-16T18:38:40.381Z,14.47
2023-03-16T18:40:42.048Z,14.48
2023-03-16T18:42:43.639Z,14.46
2023-03-16T18:44:45.386Z,14.57
2023-03-16T18:46:48.619Z,14.54
2023-03-16T18:48:51.409Z,14.55
2023-03-16T18:50:53.235Z,14.60
2023-03-16T18:52:56.671Z,14.60
2023-03-16T18:54:58.414Z,14.53
2023-03-16T18:57:00.210Z,14.48
2023-03-16T18:59:01.890Z,14.46
2023-03-16T19:01:03.710Z,14.47
2023-03-16T19:03:05.314Z,14.42
2023-03-16T19:05:12.350Z,14.33
2023-03-16T19:07:24.316Z,14.29
2023-03-16T19:09:29.689Z,14.32
2023-03-16T19:11:32.603Z,14.24
2023-03-16T19:13:34.132Z,14.18
2023-03-16T19:15:35.791Z,14.18
2023-03-16T19:17:37.460Z,14.13
2023-03-16T19:19:39.030Z,14.09
2023-03-16T19:21:41.026Z,14.07
2023-03-16T19:23:43.996Z,14.11
2023-03-16T19:25:47.374Z,14.00
2023-03-16T19:27:49.598Z,13.98
2023-03-16T19:29:52.982Z,13.91
2023-03-16T19:31:56.537Z,13.93
2023-03-16T19:33:58.654Z,13.94
2023-03-16T19:36:00.249Z,13.94
2023-03-16T19:38:01.931Z,13.94
2023-03-16T19:40:04.556Z,13.94
2023-03-16T19:42:19.311Z,14.05
2023-03-16T19:44:30.596Z,14.06
2023-03-16T19:46:32.178Z,13.96
2023-03-16T19:48:34.340Z,13.95
2023-03-16T19:50:35.947Z,14.04
2023-03-16T19:52:37.512Z,14.02
2023-03-16T19:54:39.206Z,13.99
2023-03-16T19:56:40.804Z,13.98
2023-03-16T19:58:46.922Z,14.02
2023-03-16T20:00:48.814Z,14.00
2023-03-16T20:02:50.586Z,13.94
2023-03-16T20:04:52.257Z,13.86
2023-03-16T20:06:54.403Z,13.93
2023-03-16T20:08:55.929Z,13.93
2023-03-16T20:11:03.847Z,13.80
2023-03-16T20:13:05.602Z,13.81
2023-03-16T20:15:14.238Z,13.74
2023-03-16T20:17:20.723Z,13.80
2023-03-16T20:19:22.510Z,13.83
2023-03-16T20:21:24.316Z,13.76
2023-03-16T20:23:27.788Z,13.77
2023-03-16T20:25:31.982Z,13.75
2023-03-16T20:27:33.568Z,13.71
2023-03-16T20:29:35.202Z,13.72
2023-03-16T20:31:38.410Z,13.69
2023-03-16T20:33:40.017Z,13.63
2023-03-16T20:35:41.648Z,13.59
2023-03-16T20:37:43.410Z,13.59
2023-03-16T20:39:45.010Z,13.60
2023-03-16T20:41:47.152Z,13.55
2023-03-16T20:43:50.220Z,13.64
2023-03-16T20:45:53.249Z,13.70
2023-03-16T20:47:56.377Z,13.76
2023-03-16T20:49:58.026Z,13.71
2023-03-16T20:52:00.037Z,13.71
2023-03-16T20:54:01.636Z,13.77
2023-03-16T20:56:03.391Z,13.73
2023-03-16T20:58:16.756Z,13.80
2023-03-16T21:00:24.004Z,13.76
2023-03-16T21:02:27.702Z,13.70
2023-03-16T21:04:30.823Z,13.70
2023-03-16T21:06:32.450Z,13.66
2023-03-16T21:08:34.029Z,13.60
2023-03-16T21:10:35.713Z,13.64
2023-03-16T21:12:46.455Z,13.62
2023-03-16T21:14:48.223Z,13.60
2023-03-16T21:16:50.422Z,13.54
2023-03-16T21:18:52.121Z,13.54
2023-03-16T21:20:55.053Z,13.54
2023-03-16T21:22:57.058Z,13.51
2023-03-16T21:24:59.064Z,13.62
2023-03-16T21:27:00.810Z,13.55
2023-03-16T21:29:07.944Z,13.58
2023-03-16T21:31:17.575Z,13.44
2023-03-16T21:33:28.164Z,13.40
2023-03-16T21:35:33.030Z,13.14
2023-03-16T21:37:35.927Z,12.92
2023-03-16T21:39:37.532Z,12.76
2023-03-16T21:41:39.102Z,12.63
2023-03-16T21:43:41.149Z,12.61
2023-03-16T21:45:43.721Z,12.68
2023-03-16T21:47:46.653Z,12.59
2023-03-16T21:49:48.228Z,12.72
2023-03-16T21:51:50.337Z,12.80
2023-03-16T21:53:53.223Z,12.85
2023-03-16T21:55:56.260Z,12.88
2023-03-16T21:57:58.849Z,12.93
2023-03-16T22:00:00.414Z,12.92
2023-03-16T22:02:02.667Z,12.92
2023-03-16T22:04:06.505Z,12.89
2023-03-16T22:06:12.474Z,12.98
2023-03-16T22:08:17.333Z,13.05
2023-03-16T22:10:20.519Z,12.98
2023-03-16T22:12:22.106Z,13.03
2023-03-16T22:14:23.687Z,13.02
2023-03-16T22:16:28.724Z,13.01
2023-03-16T22:18:35.187Z,12.97
2023-03-16T22:20:36.826Z,12.91
2023-03-16T22:22:38.380Z,12.83
2023-03-16T22:24:39.911Z,12.96
2023-03-16T22:26:42.922Z,12.97
2023-03-16T22:28:44.572Z,12.98
2023-03-16T22:30:46.877Z,12.97
2023-03-16T22:32:51.310Z,12.94
2023-03-16T22:34:55.272Z,12.94
2023-03-16T22:36:57.820Z,12.88
2023-03-16T22:39:01.905Z,12.88
2023-03-16T22:41:03.773Z,12.85
2023-03-16T22:43:12.432Z,12.83
2023-03-16T22:45:17.379Z,12.83
2023-03-16T22:47:21.760Z,12.86
2023-03-16T22:49:26.123Z,12.85
2023-03-16T22:51:31.495Z,12.89
2023-03-16T22:53:37.849Z,12.90
2023-03-16T22:55:40.180Z,12.90
2023-03-16T22:57:41.946Z,12.82
2023-03-16T22:59:47.247Z,12.86
2023-03-16T23:01:50.115Z,12.83
2023-03-16T23:03:52.309Z,12.81
2023-03-16T23:05:54.061Z,12.88
2023-03-16T23:07:56.769Z,12.90
2023-03-16T23:09:58.311Z,12.86
2023-03-16T23:11:59.954Z,12.80
2023-03-16T23:14:02.177Z,12.84
2023-03-16T23:16:14.792Z,12.75
2023-03-16T23:18:18.573Z,12.76
2023-03-16T23:20:23.644Z,12.79
2023-03-16T23:22:25.205Z,12.78
2023-03-16T23:24:26.825Z,12.79
2023-03-16T23:26:28.817Z,12.75
2023-03-16T23:28:30.392Z,12.79
2023-03-16T23:30:35.073Z,12.80
2023-03-16T23:32:38.051Z,12.78
2023-03-16T23:34:39.609Z,12.80
2023-03-16T23:36:41.493Z,12.79
2023-03-16T23:38:43.600Z,12.79
2023-03-16T23:40:46.534Z,12.87
2023-03-16T23:42:48.882Z,12.59
2023-03-16T23:44:50.476Z,12.38
2023-03-16T23:46:52.617Z,12.16
2023-03-16T23:48:58.816Z,12.03
2023-03-16T23:51:00.673Z,11.88
2023-03-16T23:53:03.335Z,11.72
2023-03-16T23:55:10.276Z,11.64
2023-03-16T23:57:12.081Z,11.48
2023-03-16T23:59:13.707Z,11.37
